Coeburn, VA

6:24 PM EST on November 27, 2014 (GMT -0500)
Southwest Virginia, 4 miles SSE | Change Station
CLOSE
Current Station
Personal Weather Station
Location: Nora, VA
Elevation: 2650 ft
Nearby Weather Stations

Elev 2650 ft 37.02 °N, 82.32 °W | Updated 4 minutes ago

Overcast
Overcast
23.8 °F
Feels Like 15 °F
N
8.0
Wind Variable Wind from NW
Gusts 16.0 mph

Today
High -- | Low -- °F
--% Chance of Precip.
Yesterday
High -- | Low -- °F
Precip. -- in
7:20 AM 5:14 PM
Waxing Crescent, 34% visible
Pressure 30.24 in
Visibility 7.0 miles
Clouds Overcast 1800 ft
Windchill 15 °F
Dew Point 21 °F
Humidity 90%
Rainfall -999.00 in
Snow Depth Not available.
UV 0 out of 12
Pollen .10 out of 12
Air Quality Not available.
Flu Activity Not available.
METAR KVJI 272315Z AUTO 36006KT 7SM -SN OVC018 00/M03 A3024 RMK AO2 T00001026

More Conditions Fewer Conditions

Pressure 30.24 in
Visibility 7.0 miles
Clouds Overcast 1800 ft
Windchill 15 °F
Dew Point 21 °F
Humidity 90%
Rainfall -999.00 in
Snow Depth Not available.
UV 0 out of 12
Pollen .10 out of 12
Air Quality Not available.
Flu Activity Not available.
METAR KVJI 272315Z AUTO 36006KT 7SM -SN OVC018 00/M03 A3024 RMK AO2 T00001026

More Conditions Fewer Conditions

10-Day Weather Forecast

Almanac

Astronomy

Nov. 27, 2014 Rise Set
Actual Time
Civil Twilight
Nautical Twilight
Astronomical Twilight
Moon
Length of Visible Light
Length of Day
Tomorrow will be .
, % of the Moon is Illuminated

Today's Extremes

State Highs State Lows

Community

WunderPhotos

Upload Photos

1,774,135 photos uploaded!

WunderBlogs® & News

Nearby

Air Quality

  Air Quality AQ Index Pollutant
Not available.

Snow Depth

Station Depth Elevation

Earthquake Activity

City Distance Mag. Time & Date
Minimum magnitude displayed is 2.5.

Coastal Water Temperatures

Place Temperature

Nearby Weather Stations